Weather History for KBIE - January, 2014

Change the Weather History Date:

Monday, January 13, 2014

  Actual Average Record
Temperature  
Mean Temperature 39 °F -  
Max Temperature 48 °F 35 °F 58 °F (1980)
Min Temperature 30 °F 12 °F -11 °F (1964)
Degree Days  
Heating Degree Days 26    
Moisture  
Dew Point 27 °F    
Average Humidity 68    
Maximum Humidity 90    
Minimum Humidity 42    
Precipitation  
Precipitation 0.00 in - - ()
Sea Level Pressure  
Sea Level Pressure 29.79 in    
Wind  
Wind Speed 8 mph (West)    
Max Wind Speed 14 mph    
Max Gust Speed 18 mph    
Visibility 10 miles    
Events      
Averages and records for this station are not official NWS values.
T = Trace of Precipitation, MM = Missing Value Source: NWS Daily Summary

Daily Weather History Graph

Daily Weather History Graph

Search for Another Location

Airport or City:

Trip Planner

Search our weather history database for the weather conditions in past years. The results will help you decide how hot, cold, wet, or windy it might be!

Date:

Astronomy

Jan. 13, 2014 Rise Set
Actual Time 7:48 AM CST 5:23 PM CST
Civil Twilight 7:18 AM CST 5:53 PM CST
Nautical Twilight 6:44 AM CST 6:26 PM CST
Astronomical Twilight 6:12 AM CST 6:59 PM CST
Moon 3:39 PM CST (1/13) 5:38 AM CST (1/13)
Length of Visible Light 10h 34m
Length of Day
9h 34m
Waxing Gibbous, 95% of the Moon is Illuminated
Jan 13
Waxing Gibbous
Jan 15
Full
Jan 23
Last Quarter
Jan 30
New
Feb 6
First Quarter

Hourly Weather History & Observations

Time (CST) Temp. Windchill Dew Point Humidity Pressure Visibility Wind Dir Wind Speed Gust Speed Precip Events Conditions
12:15 AM 38.8 °F - 32.4 °F 78% 29.69 in 10.0 mi Calm Calm - N/A   Clear
12:35 AM 34.5 °F 30.4 °F 32.0 °F 90% 29.70 in 10.0 mi WSW 4.6 mph - N/A   Mostly Cloudy
12:55 AM 35.8 °F 29.4 °F 31.8 °F 86% 29.71 in 10.0 mi West 8.1 mph - N/A   Scattered Clouds
1:15 AM 35.2 °F 29.5 °F 31.3 °F 85% 29.71 in 10.0 mi West 6.9 mph - N/A   Clear
1:35 AM 34.2 °F 26.2 °F 30.7 °F 87% 29.72 in 10.0 mi West 10.4 mph - N/A   Clear
1:55 AM 34.9 °F 28.3 °F 30.2 °F 83% 29.73 in 10.0 mi WNW 8.1 mph - N/A   Scattered Clouds
2:15 AM 36.0 °F 29.6 °F 30.2 °F 80% 29.74 in 10.0 mi WNW 8.1 mph - N/A   Overcast
2:35 AM 36.1 °F 31.4 °F 30.4 °F 80% 29.74 in 10.0 mi WNW 5.8 mph - N/A   Overcast
2:55 AM 36.9 °F 31.4 °F 30.2 °F 77% 29.75 in 10.0 mi WNW 6.9 mph - N/A   Overcast
3:15 AM 36.9 °F 30.1 °F 30.2 °F 77% 29.76 in 10.0 mi WNW 9.2 mph - N/A   Overcast
3:35 AM 35.4 °F 29.0 °F 29.5 °F 79% 29.77 in 10.0 mi WNW 8.1 mph - N/A   Mostly Cloudy
3:55 AM 35.2 °F 30.3 °F 29.3 °F 79% 29.77 in 10.0 mi WNW 5.8 mph - N/A   Mostly Cloudy
4:15 AM 34.5 °F 29.4 °F 29.3 °F 81% 29.78 in 10.0 mi West 5.8 mph - N/A   Overcast
4:35 AM 36.1 °F 31.4 °F 29.7 °F 77% 29.78 in 10.0 mi WNW 5.8 mph - N/A   Overcast
4:55 AM 35.1 °F 29.3 °F 29.1 °F 79% 29.79 in 10.0 mi WNW 6.9 mph - N/A   Mostly Cloudy
5:15 AM 35.8 °F 26.9 °F 28.8 °F 76% 29.80 in 10.0 mi NW 13.8 mph - N/A   Scattered Clouds
5:35 AM 34.7 °F 26.4 °F 28.4 °F 78% 29.82 in 10.0 mi NW 11.5 mph - N/A   Clear
5:55 AM 33.6 °F 25.0 °F 28.0 °F 80% 29.83 in 10.0 mi NW 11.5 mph - N/A   Clear
6:10 AM 32.5 °F 25.5 °F 27.3 °F 81% 29.83 in 10.0 mi NW 8.1 mph - N/A   Clear
6:35 AM 32.5 °F 24.2 °F 27.5 °F 82% 29.83 in 10.0 mi NW 10.4 mph - N/A   Clear
6:55 AM 32.2 °F 23.2 °F 27.5 °F 83% 29.83 in 10.0 mi NW 11.5 mph - N/A   Clear
7:15 AM 32.0 °F 24.8 °F 27.3 °F 83% 29.84 in 10.0 mi WNW 8.1 mph - N/A   Clear
7:35 AM 31.1 °F 23.1 °F 26.6 °F 83% 29.84 in 10.0 mi WNW 9.2 mph - N/A   Clear
7:55 AM 30.2 °F 22.6 °F 25.9 °F 84% 29.85 in 10.0 mi WNW 8.1 mph - N/A   Clear
8:15 AM 30.2 °F 23.4 °F 26.1 °F 85% 29.86 in 10.0 mi WNW 6.9 mph - N/A   Clear
8:35 AM 31.1 °F 23.7 °F 26.6 °F 83% 29.86 in 10.0 mi WNW 8.1 mph - N/A   Clear
8:55 AM 32.0 °F 25.6 °F 27.3 °F 83% 29.87 in 10.0 mi WNW 6.9 mph - N/A   Clear
9:15 AM 32.9 °F 26.7 °F 27.9 °F 82% 29.88 in 10.0 mi West 6.9 mph - N/A   Clear
9:35 AM 33.8 °F 27.0 °F 28.4 °F 81% 29.89 in 10.0 mi WNW 8.1 mph - N/A   Clear
9:55 AM 35.1 °F 27.9 °F 28.8 °F 78% 29.90 in 10.0 mi NW 9.2 mph - N/A   Clear
10:15 AM 36.3 °F 28.9 °F 29.3 °F 76% 29.90 in 10.0 mi NW 10.4 mph - N/A   Clear
10:35 AM 37.8 °F 30.2 °F 29.5 °F 72% 29.90 in 10.0 mi NW 11.5 mph - N/A   Clear
10:55 AM 38.3 °F 30.9 °F 28.9 °F 69% 29.90 in 10.0 mi NW 11.5 mph - N/A   Clear
11:15 AM 39.4 °F 31.8 °F 28.2 °F 64% 29.89 in 10.0 mi NW 12.7 mph - N/A   Clear
11:35 AM 40.5 °F 32.8 °F 28.4 °F 62% 29.88 in 10.0 mi WNW 13.8 mph 17.3 mph N/A   Clear
11:55 AM 41.0 °F 33.5 °F 28.0 °F 60% 29.88 in 10.0 mi WNW 13.8 mph - N/A   Clear
12:15 PM 41.9 °F 35.9 °F 27.9 °F 58% 29.86 in 10.0 mi WNW 10.4 mph - N/A   Clear
12:35 PM 41.9 °F 35.9 °F 27.3 °F 56% 29.85 in 10.0 mi West 10.4 mph - N/A   Clear
12:55 PM 43.5 °F 37.1 °F 28.2 °F 55% 29.85 in 10.0 mi West 12.7 mph 17.3 mph N/A   Clear
1:15 PM 44.1 °F 38.6 °F 26.4 °F 50% 29.84 in 10.0 mi West 10.4 mph 18.4 mph N/A   Clear
1:35 PM 44.6 °F 38.8 °F 27.9 °F 52% 29.82 in 10.0 mi West 11.5 mph - N/A   Clear
1:55 PM 45.9 °F 40.4 °F 27.3 °F 48% 29.81 in 10.0 mi SW 11.5 mph - N/A   Clear
2:15 PM 46.4 °F 41.5 °F 27.3 °F 47% 29.80 in 10.0 mi West 10.4 mph - N/A   Clear
2:35 PM 47.5 °F - 26.8 °F 45% 29.79 in 10.0 mi West 12.7 mph 16.1 mph N/A   Clear
2:55 PM 47.3 °F - 27.3 °F 46% 29.78 in 10.0 mi SW 12.7 mph 17.3 mph N/A   Clear
3:15 PM 47.8 °F - 27.5 °F 45% 29.78 in 10.0 mi WSW 12.7 mph - N/A   Clear
3:35 PM 48.4 °F - 27.3 °F 44% 29.78 in 10.0 mi WSW 12.7 mph - N/A   Clear
3:55 PM 47.8 °F - 25.9 °F 42% 29.79 in 10.0 mi SW 10.4 mph - N/A   Clear
4:15 PM 47.7 °F - 26.1 °F 43% 29.78 in 10.0 mi SW 12.7 mph - N/A   Clear
4:35 PM 48.0 °F - 26.4 °F 43% 29.78 in 10.0 mi SW 11.5 mph - N/A   Clear
4:55 PM 45.7 °F 40.6 °F 25.7 °F 46% 29.78 in 10.0 mi SW 10.4 mph - N/A   Clear
5:15 PM 43.5 °F 37.9 °F 26.1 °F 50% 29.79 in 10.0 mi SW 10.4 mph - N/A   Clear
5:35 PM 41.0 °F 35.8 °F 25.3 °F 54% 29.78 in 10.0 mi SW 8.1 mph - N/A   Clear
5:55 PM 39.4 °F 34.5 °F 25.0 °F 56% 29.78 in 10.0 mi SSW 6.9 mph - N/A   Clear
6:15 PM 37.8 °F 33.3 °F 25.5 °F 61% 29.77 in 10.0 mi SSW 5.8 mph - N/A   Clear
6:35 PM 36.5 °F 31.0 °F 25.5 °F 64% 29.76 in 10.0 mi SSW 6.9 mph - N/A   Clear
6:55 PM 37.4 °F 30.8 °F 25.7 °F 63% 29.76 in 10.0 mi South 9.2 mph - N/A   Clear
7:15 PM 37.2 °F 30.0 °F 26.6 °F 65% 29.75 in 10.0 mi South 10.4 mph - N/A   Clear
7:35 PM 35.4 °F 29.0 °F 26.1 °F 69% 29.75 in 10.0 mi SSW 8.1 mph - N/A   Clear
7:55 PM 35.6 °F 29.2 °F 25.7 °F 67% 29.75 in 10.0 mi SW 8.1 mph - N/A   Clear
8:15 PM 36.5 °F 29.7 °F 25.2 °F 64% 29.75 in 10.0 mi SW 9.2 mph - N/A   Clear
8:35 PM 34.5 °F 26.2 °F 24.6 °F 67% 29.75 in 10.0 mi WSW 11.5 mph - N/A   Clear
8:55 PM 35.1 °F 29.3 °F 23.9 °F 64% 29.74 in 10.0 mi WSW 6.9 mph - N/A   Clear
9:15 PM 34.0 °F 26.6 °F 23.9 °F 67% 29.74 in 10.0 mi WSW 9.2 mph - N/A   Clear
9:35 PM 33.3 °F 26.4 °F 23.0 °F 66% 29.74 in 10.0 mi WSW 8.1 mph - N/A   Clear
9:55 PM 33.3 °F 27.9 °F 23.0 °F 66% 29.74 in 10.0 mi WSW 5.8 mph - N/A   Clear
10:15 PM 32.9 °F 26.7 °F 23.2 °F 67% 29.74 in 10.0 mi SW 6.9 mph - N/A   Clear
10:35 PM 32.2 °F 25.8 °F 23.5 °F 70% 29.74 in 10.0 mi WSW 6.9 mph - N/A   Clear
10:55 PM 32.2 °F 26.7 °F 23.9 °F 72% 29.74 in 10.0 mi WSW 5.8 mph - N/A   Clear
11:15 PM 33.1 °F 26.9 °F 24.4 °F 71% 29.74 in 10.0 mi WSW 6.9 mph - N/A   Mostly Cloudy
11:35 PM 33.3 °F 26.4 °F 25.3 °F 73% 29.74 in 10.0 mi WSW 8.1 mph - N/A   Scattered Clouds
11:55 PM 34.7 °F 27.5 °F 25.7 °F 70% 29.74 in 10.0 mi WSW 9.2 mph - N/A   Clear